Time;durP1;ratioP1;P1;durP2;ratioP2;P2;SDS_P1;SDS_P2;PMS_P1;PMS_P2;Temp;Humidity;BMP_temperature;BMP_pressure;BME280_temperature;BME280_humidity;BME280_pressure;Samples;Min_cycle;Max_cycle;Signal;HPM_P1;HPM_P2
2022/08/10 00:00:30;;;;;;;7.85;3.72;;;15.60;99.90;;;;;;5040162;28;32755;-65
2022/08/10 00:02:59;;;;;;;9.25;4.18;;;15.50;99.90;;;;;;5026137;28;208094;-65
2022/08/10 00:05:26;;;;;;;8.30;3.90;;;15.50;99.90;;;;;;5026905;28;133860;-64
2022/08/10 00:07:53;;;;;;;9.65;3.95;;;15.50;99.90;;;;;;5000822;28;206742;-65
2022/08/10 00:10:21;;;;;;;11.82;4.10;;;15.50;99.90;;;;;;5034690;28;245307;-65
2022/08/10 00:12:48;;;;;;;9.15;4.38;;;15.40;99.90;;;;;;5026241;28;208051;-65
2022/08/10 00:15:16;;;;;;;8.60;3.70;;;15.40;99.90;;;;;;5037357;28;164559;-65
2022/08/10 00:17:43;;;;;;;10.75;4.20;;;15.40;99.90;;;;;;5019253;28;206582;-65
2022/08/10 00:20:10;;;;;;;8.45;4.28;;;15.40;99.90;;;;;;5051241;28;254027;-65
2022/08/10 00:22:36;;;;;;;8.75;4.30;;;15.40;99.90;;;;;;5007292;28;206510;-65
2022/08/10 00:25:04;;;;;;;11.23;4.22;;;15.40;99.90;;;;;;5041216;28;45636;-65
2022/08/10 00:27:30;;;;;;;8.65;4.20;;;15.40;99.90;;;;;;5013333;28;187336;-65
2022/08/10 00:29:57;;;;;;;10.82;4.78;;;15.40;99.90;;;;;;5036733;28;170768;-64
2022/08/10 00:32:23;;;;;;;11.43;4.63;;;15.40;99.90;;;;;;4989805;28;213806;-64
2022/08/10 00:34:50;;;;;;;9.98;4.80;;;15.30;99.90;;;;;;5043907;28;44091;-64
2022/08/10 00:37:17;;;;;;;10.50;4.63;;;15.40;99.90;;;;;;5006367;28;209365;-64
2022/08/10 00:39:44;;;;;;;9.93;5.05;;;15.30;99.90;;;;;;5039839;28;188708;-65
2022/08/10 00:42:13;;;;;;;10.90;5.50;;;15.30;99.90;;;;;;5009849;28;206167;-65
2022/08/10 00:44:42;;;;;;;10.85;5.57;;;15.30;99.90;;;;;;5040012;28;161199;-65
2022/08/10 00:47:09;;;;;;;10.60;4.97;;;15.30;99.90;;;;;;5006565;28;209326;-65
2022/08/10 00:49:36;;;;;;;12.23;5.75;;;15.30;99.90;;;;;;5043737;28;74825;-64
2022/08/10 00:52:02;;;;;;;9.70;5.13;;;15.30;99.90;;;;;;5008700;28;212400;-65
2022/08/10 00:54:29;;;;;;;11.73;5.95;;;15.20;99.90;;;;;;5043042;28;103750;-65
2022/08/10 00:56:55;;;;;;;9.95;5.88;;;15.20;99.90;;;;;;4996139;28;203592;-64
2022/08/10 00:59:22;;;;;;;9.13;4.60;;;15.20;99.90;;;;;;5045609;28;39669;-65
2022/08/10 01:01:48;;;;;;;9.57;5.72;;;15.20;99.90;;;;;;5024937;28;206688;-65
2022/08/10 01:04:14;;;;;;;11.00;6.13;;;15.20;99.90;;;;;;5031763;28;131451;-64
2022/08/10 01:06:47;;;;;;;12.15;5.30;;;15.10;99.90;;;;;;5010304;28;206165;-64
2022/08/10 01:09:31;;;;;;;11.00;5.72;;;15.10;99.90;;;;;;5039402;28;186092;-64
2022/08/10 01:12:01;;;;;;;11.30;5.65;;;15.00;99.90;;;;;;5012489;28;206270;-65
2022/08/10 01:14:27;;;;;;;10.52;5.55;;;15.10;99.90;;;;;;5042501;28;108519;-65
2022/08/10 01:17:01;;;;;;;9.98;5.60;;;15.00;99.90;;;;;;5008871;28;213547;-64
2022/08/10 01:20:06;;;;;;;9.80;5.65;;;15.00;99.90;;;;;;5060165;28;59583;-65
2022/08/10 01:22:59;;;;;;;10.07;5.75;;;15.00;99.90;;;;;;4943431;28;206412;-64
2022/08/10 01:26:11;;;;;;;11.10;6.18;;;15.00;99.90;;;;;;4999512;28;90122;-64
2022/08/10 01:28:58;;;;;;;10.70;6.10;;;15.00;99.90;;;;;;4865569;28;206516;-65
2022/08/10 01:31:31;;;;;;;12.30;5.70;;;15.00;99.90;;;;;;4904205;28;206827;-65
2022/08/10 01:34:05;;;;;;;11.45;6.82;;;15.00;99.90;;;;;;4919221;28;20055;-65
2022/08/10 01:36:38;;;;;;;11.95;6.28;;;14.90;99.90;;;;;;4907972;28;206682;-64
2022/08/10 01:39:06;;;;;;;10.95;6.30;;;14.90;99.90;;;;;;4928236;28;20572;-65
2022/08/10 01:41:42;;;;;;;11.65;6.18;;;14.90;99.90;;;;;;4890671;28;207127;-65
2022/08/10 01:44:11;;;;;;;10.95;6.57;;;14.90;99.90;;;;;;4928695;28;194825;-64
2022/08/10 01:46:39;;;;;;;10.57;6.50;;;14.80;99.90;;;;;;4920303;28;217154;-65
2022/08/10 01:49:10;;;;;;;11.57;7.00;;;14.80;99.90;;;;;;4940290;28;134477;-64
2022/08/10 01:51:42;;;;;;;11.20;7.00;;;14.80;99.90;;;;;;4906650;28;209911;-64
2022/08/10 01:54:13;;;;;;;11.95;6.80;;;14.70;99.90;;;;;;4968710;28;75871;-64
2022/08/10 01:56:42;;;;;;;11.85;6.60;;;14.70;99.90;;;;;;4922760;28;199058;-63
2022/08/10 01:59:13;;;;;;;14.20;7.57;;;14.70;99.90;;;;;;4973694;28;246518;-63
2022/08/10 02:01:46;;;;;;;11.05;6.88;;;14.70;99.90;;;;;;4960881;28;211698;-63
2022/08/10 02:04:15;;;;;;;12.32;6.97;;;14.70;99.90;;;;;;4937451;28;252815;-64
2022/08/10 02:06:49;;;;;;;11.00;6.53;;;14.60;99.90;;;;;;5004393;28;155896;-65
2022/08/10 02:09:27;;;;;;;10.48;6.25;;;14.60;99.90;;;;;;5037844;28;200178;-64
2022/08/10 02:11:58;;;;;;;11.23;6.20;;;14.60;99.90;;;;;;5021959;28;207598;-65
2022/08/10 02:14:28;;;;;;;9.70;6.13;;;14.50;99.90;;;;;;5069508;28;137210;-64
2022/08/10 02:16:54;;;;;;;11.93;6.50;;;14.50;99.90;;;;;;5017981;28;207048;-64
2022/08/10 02:19:23;;;;;;;9.90;6.03;;;14.50;99.90;;;;;;5034290;28;146453;-64
2022/08/10 02:21:51;;;;;;;10.48;6.38;;;14.50;99.90;;;;;;5025786;28;206074;-64
2022/08/10 02:24:20;;;;;;;10.65;6.10;;;14.50;99.90;;;;;;5041541;28;86935;-65
2022/08/10 02:26:47;;;;;;;10.20;6.00;;;14.40;99.90;;;;;;5008461;28;207383;-64
2022/08/10 02:29:15;;;;;;;11.35;6.10;;;14.40;99.90;;;;;;5039202;28;147088;-64
2022/08/10 02:31:42;;;;;;;11.02;5.47;;;14.40;99.90;;;;;;5011466;28;206399;-64
2022/08/10 02:34:11;;;;;;;12.27;7.40;;;14.40;99.90;;;;;;5039222;28;142935;-65
2022/08/10 02:36:43;;;;;;;11.25;6.18;;;14.40;99.90;;;;;;5020292;28;212385;-64
2022/08/10 02:39:11;;;;;;;11.80;6.35;;;14.40;99.90;;;;;;5038874;28;164892;-63
2022/08/10 02:41:57;;;;;;;10.30;6.13;;;14.40;99.90;;;;;;5003757;28;208546;-64
2022/08/10 02:44:26;;;;;;;10.73;6.43;;;14.40;99.90;;;;;;5057707;28;87187;-64
2022/08/10 02:47:04;;;;;;;10.65;5.85;;;14.40;99.90;;;;;;5004425;28;208927;-64
2022/08/10 02:49:42;;;;;;;10.43;5.47;;;14.40;99.90;;;;;;5043176;28;29207;-65
2022/08/10 02:52:19;;;;;;;11.35;6.25;;;14.30;99.90;;;;;;5012174;28;207837;-65
2022/08/10 02:55:03;;;;;;;11.60;6.50;;;14.40;99.90;;;;;;5033774;28;273643;-65
2022/08/10 02:57:37;;;;;;;11.70;7.07;;;14.40;99.90;;;;;;5019045;28;115378;-64
2022/08/10 03:00:08;;;;;;;15.77;7.75;;;14.30;99.90;;;;;;5042119;28;44558;-64
2022/08/10 03:02:39;;;;;;;15.00;8.70;;;14.40;99.90;;;;;;5009395;28;209190;-65
2022/08/10 03:05:15;;;;;;;11.95;7.75;;;14.30;99.90;;;;;;5024021;28;151208;-64
2022/08/10 03:07:58;;;;;;;13.02;8.07;;;14.30;99.90;;;;;;5002287;28;210690;-64
2022/08/10 03:10:27;;;;;;;13.30;7.65;;;14.30;99.90;;;;;;5037743;28;167589;-64
2022/08/10 03:12:59;;;;;;;13.38;7.68;;;14.30;99.90;;;;;;5001687;28;209883;-64
2022/08/10 03:15:28;;;;;;;12.52;7.95;;;14.30;99.90;;;;;;5036468;28;181358;-64
2022/08/10 03:17:56;;;;;;;14.77;9.85;;;14.30;99.90;;;;;;5006939;28;209155;-64
2022/08/10 03:20:23;;;;;;;15.10;9.25;;;14.30;99.90;;;;;;5035272;28;231697;-64
2022/08/10 03:22:50;;;;;;;15.05;9.43;;;14.30;99.90;;;;;;5015170;28;201427;-64
2022/08/10 03:25:19;;;;;;;14.25;8.13;;;14.30;99.90;;;;;;5041757;28;80837;-64
2022/08/10 03:27:48;;;;;;;15.27;9.18;;;14.30;99.90;;;;;;5007182;28;206261;-64
2022/08/10 03:30:14;;;;;;;14.27;9.10;;;14.20;99.90;;;;;;5035493;28;227919;-64
2022/08/10 03:32:42;;;;;;;13.80;8.52;;;14.30;99.90;;;;;;5005800;28;209260;-64
2022/08/10 03:35:09;;;;;;;13.02;8.05;;;14.20;99.90;;;;;;5035952;28;209704;-64
2022/08/10 03:37:36;;;;;;;14.70;8.32;;;14.20;99.90;;;;;;5007411;28;207694;-64
2022/08/10 03:40:04;;;;;;;14.23;9.02;;;14.20;99.90;;;;;;5036771;28;184041;-64
2022/08/10 03:42:32;;;;;;;13.98;8.77;;;14.20;99.90;;;;;;5005257;28;205910;-64
2022/08/10 03:45:01;;;;;;;14.70;8.90;;;14.20;99.90;;;;;;5043102;28;20048;-64
2022/08/10 03:47:29;;;;;;;14.35;8.32;;;14.20;99.90;;;;;;5008872;28;210390;-64
2022/08/10 03:49:57;;;;;;;13.48;8.60;;;14.10;99.90;;;;;;5039747;28;89432;-64
2022/08/10 03:52:24;;;;;;;14.43;9.27;;;14.20;99.90;;;;;;5010993;28;206756;-64
2022/08/10 03:54:51;;;;;;;13.23;8.95;;;14.10;99.90;;;;;;5035225;28;218501;-64
2022/08/10 03:57:18;;;;;;;13.43;8.52;;;14.10;99.90;;;;;;5004294;28;205799;-64
2022/08/10 03:59:45;;;;;;;14.98;9.55;;;14.10;99.90;;;;;;5042322;28;20063;-64
2022/08/10 04:02:12;;;;;;;16.65;11.43;;;14.10;99.90;;;;;;5006479;28;207619;-64
2022/08/10 04:04:39;;;;;;;14.23;9.57;;;14.10;99.90;;;;;;5007825;28;90333;-65
2022/08/10 04:07:05;;;;;;;15.00;9.50;;;14.10;99.90;;;;;;5006287;28;206435;-65
2022/08/10 04:09:34;;;;;;;14.63;9.00;;;14.00;99.90;;;;;;5059077;28;93970;-65
2022/08/10 04:12:01;;;;;;;14.55;9.25;;;14.10;99.90;;;;;;5033753;28;209082;-65
2022/08/10 04:14:27;;;;;;;14.10;9.50;;;14.00;99.90;;;;;;5036923;28;276525;-65
2022/08/10 04:16:53;;;;;;;15.93;9.70;;;14.00;99.90;;;;;;5013680;28;210715;-65
2022/08/10 04:19:21;;;;;;;14.05;8.90;;;14.00;99.90;;;;;;5040920;28;174295;-65
2022/08/10 04:21:59;;;;;;;16.38;9.90;;;14.00;99.90;;;;;;5021362;28;209528;-65
2022/08/10 04:24:26;;;;;;;15.38;9.80;;;14.00;99.90;;;;;;5061210;28;53885;-65
2022/08/10 04:26:53;;;;;;;18.58;10.65;;;14.00;99.90;;;;;;5006182;28;209916;-65
2022/08/10 04:29:19;;;;;;;30.08;10.93;;;14.00;99.90;;;;;;5037546;28;242332;-65
2022/08/10 04:31:47;;;;;;;18.58;10.20;;;14.10;99.90;;;;;;4977511;28;213207;-65
2022/08/10 04:34:14;;;;;;;20.85;9.85;;;14.00;99.90;;;;;;5030351;28;261330;-65
2022/08/10 04:36:41;;;;;;;24.98;10.07;;;14.00;99.90;;;;;;5015056;28;206698;-65
2022/08/10 04:39:09;;;;;;;15.48;9.27;;;14.00;99.90;;;;;;5042648;28;115695;-65
2022/08/10 04:41:36;;;;;;;15.75;8.88;;;14.00;99.90;;;;;;5008682;28;203589;-65
2022/08/10 04:44:02;;;;;;;15.23;9.48;;;14.00;99.90;;;;;;5039880;28;20060;-65
2022/08/10 04:46:28;;;;;;;16.95;10.38;;;14.00;99.90;;;;;;5007703;28;207600;-65
2022/08/10 04:48:54;;;;;;;17.42;10.32;;;14.00;99.90;;;;;;5041163;28;141409;-65
2022/08/10 04:51:20;;;;;;;17.75;10.57;;;14.10;99.90;;;;;;5014248;28;206728;-64
2022/08/10 04:53:50;;;;;;;18.30;10.85;;;14.10;99.90;;;;;;5044893;28;40353;-64
2022/08/10 04:56:16;;;;;;;18.85;10.43;;;14.20;99.90;;;;;;5036237;28;117592;-64
2022/08/10 04:58:42;;;;;;;16.38;11.15;;;14.20;99.90;;;;;;5039881;28;177997;-64
2022/08/10 05:01:09;;;;;;;15.07;10.45;;;14.30;99.90;;;;;;5016315;28;206477;-64
2022/08/10 05:03:35;;;;;;;15.18;10.02;;;14.40;99.90;;;;;;5019965;28;259972;-64
2022/08/10 05:06:01;;;;;;;17.25;10.93;;;14.40;99.90;;;;;;5004050;28;224070;-64
2022/08/10 05:08:27;;;;;;;16.27;10.47;;;14.50;99.90;;;;;;5051067;28;251347;-64
2022/08/10 05:10:53;;;;;;;16.25;10.70;;;14.50;99.90;;;;;;5027002;28;209391;-64
2022/08/10 05:13:19;;;;;;;16.08;9.75;;;14.60;99.90;;;;;;5032926;28;270417;-64
2022/08/10 05:15:47;;;;;;;17.80;11.57;;;14.60;99.90;;;;;;5001916;28;208957;-64
2022/08/10 05:18:13;;;;;;;17.50;10.50;;;14.70;99.90;;;;;;5068373;28;20057;-64
2022/08/10 05:20:40;;;;;;;19.05;10.85;;;14.70;99.90;;;;;;4997197;28;209511;-64
2022/08/10 05:23:06;;;;;;;16.80;10.32;;;14.80;99.90;;;;;;5035134;28;206771;-64
2022/08/10 05:25:32;;;;;;;17.67;10.90;;;14.90;99.90;;;;;;5055686;28;121766;-64
2022/08/10 05:27:58;;;;;;;16.30;10.18;;;14.90;99.90;;;;;;5002743;28;58666;-65
2022/08/10 05:30:25;;;;;;;18.40;11.60;;;15.00;99.90;;;;;;5042283;28;67354;-64
2022/08/10 05:32:51;;;;;;;18.13;11.93;;;15.10;99.90;;;;;;5025251;28;206951;-65
2022/08/10 05:35:17;;;;;;;17.88;11.73;;;15.10;99.90;;;;;;5059511;28;62293;-65
2022/08/10 05:37:45;;;;;;;17.92;12.27;;;15.20;99.90;;;;;;5008530;28;205958;-64
2022/08/10 05:40:11;;;;;;;17.73;12.15;;;15.20;99.90;;;;;;5040960;28;131067;-64
2022/08/10 05:42:38;;;;;;;19.70;12.45;;;15.30;99.90;;;;;;4989710;28;206414;-64
2022/08/10 05:45:04;;;;;;;21.85;13.70;;;15.40;99.90;;;;;;5058818;28;60224;-64
2022/08/10 05:47:31;;;;;;;18.80;12.93;;;15.50;99.90;;;;;;5030206;28;127807;-63
2022/08/10 05:49:57;;;;;;;20.38;13.23;;;15.60;99.90;;;;;;5035510;28;267876;-64
2022/08/10 05:52:23;;;;;;;20.08;11.93;;;15.70;99.90;;;;;;5038875;28;52602;-64
2022/08/10 05:54:50;;;;;;;21.52;12.68;;;15.80;99.90;;;;;;5057001;28;109878;-64
2022/08/10 05:57:18;;;;;;;19.60;12.60;;;16.00;99.90;;;;;;4988945;28;210102;-64
2022/08/10 05:59:55;;;;;;;21.13;13.27;;;16.10;99.90;;;;;;5065499;28;260164;-65
2022/08/10 06:02:35;;;;;;;18.73;11.23;;;16.20;99.90;;;;;;5016665;28;224781;-65
2022/08/10 06:05:15;;;;;;;20.30;11.35;;;16.30;99.90;;;;;;5042755;28;111177;-64
2022/08/10 06:07:51;;;;;;;19.27;11.73;;;16.40;99.90;;;;;;5037834;28;206976;-64
2022/08/10 06:10:20;;;;;;;18.70;11.65;;;16.50;99.90;;;;;;5039296;28;175486;-64
2022/08/10 06:14:59;;;;;;;17.92;11.00;;;16.60;99.90;;;;;;5030613;28;133368;-64
2022/08/10 06:15:36;;;;;;;17.10;10.18;;;16.70;99.90;;;;;;5067132;28;271236;-65
2022/08/10 06:18:03;;;;;;;17.00;9.82;;;16.80;99.90;;;;;;4993544;28;211434;-64
2022/08/10 06:20:30;;;;;;;16.02;9.43;;;17.10;99.90;;;;;;5044196;28;32327;-64
2022/08/10 06:23:02;;;;;;;16.33;9.48;;;17.50;99.90;;;;;;5025861;28;209991;-64
2022/08/10 06:25:32;;;;;;;13.82;8.20;;;17.90;99.90;;;;;;5066716;28;276966;-64
2022/08/10 06:27:59;;;;;;;12.95;8.00;;;18.30;99.90;;;;;;5002298;28;214939;-65
2022/08/10 06:30:27;;;;;;;14.80;7.80;;;18.50;99.90;;;;;;5043613;28;20062;-65
2022/08/10 06:32:55;;;;;;;11.93;6.72;;;18.80;99.90;;;;;;5005849;28;204525;-65
2022/08/10 06:35:27;;;;;;;11.50;6.15;;;19.10;99.90;;;;;;5058476;28;80529;-65
2022/08/10 06:37:57;;;;;;;11.38;6.28;;;19.40;99.90;;;;;;4995568;28;137915;-65
2022/08/10 06:40:31;;;;;;;12.55;5.90;;;19.70;99.90;;;;;;5058151;28;94689;-65
2022/08/10 06:42:59;;;;;;;11.95;4.95;;;19.90;99.90;;;;;;4992860;28;207435;-66
2022/08/10 06:45:34;;;;;;;9.77;4.22;;;20.30;99.90;;;;;;5059408;28;52321;-65
2022/08/10 06:48:25;;;;;;;8.80;4.22;;;20.50;99.90;;;;;;5025904;28;209370;-66
2022/08/10 06:50:56;;;;;;;10.65;3.80;;;20.70;99.90;;;;;;5008814;28;212600;-66
2022/08/10 06:53:27;;;;;;;9.63;3.50;;;20.90;99.90;;;;;;5051068;28;241255;-66
2022/08/10 06:56:02;;;;;;;9.13;3.75;;;21.20;99.90;;;;;;5004260;28;219043;-66
2022/08/10 06:58:35;;;;;;;8.60;3.20;;;21.40;99.90;;;;;;5036106;28;260136;-65
2022/08/10 07:01:06;;;;;;;8.90;3.28;;;21.60;99.90;;;;;;5001226;28;147007;-66
2022/08/10 07:03:37;;;;;;;8.52;3.28;;;21.70;99.90;;;;;;5038168;28;232080;-66
2022/08/10 07:06:06;;;;;;;8.10;2.90;;;21.90;99.90;;;;;;4992503;28;211655;-66
2022/08/10 07:08:35;;;;;;;8.15;3.10;;;22.00;99.90;;;;;;5022112;28;266288;-66
2022/08/10 07:11:04;;;;;;;12.68;3.00;;;22.20;99.90;;;;;;5005289;28;205620;-66
2022/08/10 07:13:31;;;;;;;7.80;3.00;;;22.30;99.90;;;;;;5032780;28;269305;-66
2022/08/10 07:15:59;;;;;;;9.33;2.80;;;22.50;99.90;;;;;;5000890;28;209999;-66
2022/08/10 07:18:28;;;;;;;7.40;2.65;;;22.60;99.90;;;;;;5048470;28;259855;-66
2022/08/10 07:20:54;;;;;;;9.45;2.90;;;22.80;99.90;;;;;;5018032;28;210144;-64
2022/08/10 07:23:23;;;;;;;9.75;2.70;;;23.00;99.90;;;;;;5031079;28;268437;-65
2022/08/10 07:25:51;;;;;;;9.33;2.97;;;23.20;99.90;;;;;;5005206;28;209544;-66
2022/08/10 07:28:19;;;;;;;10.63;2.75;;;23.30;99.90;;;;;;5034389;28;258630;-65
2022/08/10 07:30:46;;;;;;;7.40;2.67;;;23.40;99.90;;;;;;5003287;28;210921;-65
2022/08/10 07:33:15;;;;;;;7.43;2.28;;;23.50;99.90;;;;;;5049288;28;20417;-66
2022/08/10 07:35:42;;;;;;;8.02;2.42;;;23.60;99.90;;;;;;4991481;28;227626;-66
2022/08/10 07:38:23;;;;;;;11.57;2.67;;;23.70;99.90;;;;;;5067018;28;20647;-67
2022/08/10 07:40:51;;;;;;;8.82;2.50;;;23.90;99.90;;;;;;5012076;28;211839;-66
2022/08/10 07:43:22;;;;;;;9.00;2.15;;;24.10;99.90;;;;;;5035576;28;254944;-66
2022/08/10 07:45:49;;;;;;;6.90;2.28;;;24.40;99.90;;;;;;5000234;28;211204;-66
2022/08/10 07:48:27;;;;;;;7.68;2.47;;;24.70;99.90;;;;;;5066160;28;20057;-66
2022/08/10 07:50:58;;;;;;;11.43;2.70;;;24.90;99.90;;;;;;4978565;28;214828;-66
2022/08/10 07:53:28;;;;;;;9.68;2.78;;;25.20;99.90;;;;;;5031396;28;258806;-67
2022/08/10 07:55:56;;;;;;;10.37;2.60;;;25.30;99.70;;;;;;5005160;28;212386;-67
2022/08/10 07:58:27;;;;;;;9.00;2.88;;;25.50;99.60;;;;;;5030788;28;278433;-67
2022/08/10 08:00:54;;;;;;;10.23;2.70;;;25.70;99.30;;;;;;5006758;28;208777;-67
2022/08/10 08:03:29;;;;;;;10.50;2.53;;;25.90;98.80;;;;;;5017711;28;268214;-68
2022/08/10 08:05:58;;;;;;;9.90;2.35;;;26.10;98.60;;;;;;5023775;28;210778;-67
2022/08/10 08:08:25;;;;;;;8.00;2.30;;;26.30;98.50;;;;;;5031457;28;255644;-67
2022/08/10 08:10:53;;;;;;;8.10;2.00;;;26.50;98.30;;;;;;5017685;28;213160;-67
2022/08/10 08:13:20;;;;;;;11.43;2.28;;;26.80;97.90;;;;;;5030236;28;269411;-67
2022/08/10 08:15:48;;;;;;;10.77;2.60;;;27.00;97.40;;;;;;5003663;28;216628;-67
2022/08/10 08:18:17;;;;;;;9.77;2.40;;;27.10;96.60;;;;;;5049413;28;20056;-67
2022/08/10 08:20:44;;;;;;;8.02;2.00;;;27.20;96.80;;;;;;4978495;28;213582;-67
2022/08/10 08:23:12;;;;;;;11.73;2.83;;;27.50;96.30;;;;;;5066295;28;20052;-67
2022/08/10 08:25:40;;;;;;;9.88;2.55;;;27.60;95.60;;;;;;5018450;28;213036;-67
2022/08/10 08:28:09;;;;;;;7.13;1.90;;;27.70;95.50;;;;;;5006818;28;206093;-67
2022/08/10 08:30:37;;;;;;;9.55;2.17;;;27.90;95.20;;;;;;5036592;28;116055;-67
2022/08/10 08:33:05;;;;;;;7.15;1.88;;;28.10;94.60;;;;;;4990056;28;212617;-68
2022/08/10 08:35:32;;;;;;;7.78;2.10;;;28.30;94.20;;;;;;5036014;28;152103;-68
2022/08/10 08:37:59;;;;;;;9.23;2.10;;;28.40;93.90;;;;;;5034408;28;208225;-68
2022/08/10 08:40:29;;;;;;;9.35;1.90;;;28.70;93.70;;;;;;5040927;28;38845;-67
2022/08/10 08:43:19;;;;;;;8.03;1.83;;;28.90;93.40;;;;;;5013068;28;113877;-68
2022/08/10 08:46:01;;;;;;;8.02;1.92;;;29.10;92.50;;;;;;4977973;28;212494;-68
2022/08/10 08:48:42;;;;;;;10.43;1.95;;;29.30;92.70;;;;;;5031678;28;259843;-67
2022/08/10 08:51:38;;;;;;;7.55;1.80;;;29.60;91.90;;;;;;5008724;28;206281;-68
2022/08/10 08:54:36;;;;;;;8.00;1.90;;;29.80;91.00;;;;;;5061757;28;63404;-68
2022/08/10 08:57:27;;;;;;;7.20;1.85;;;30.10;90.40;;;;;;4953333;28;206150;-68
2022/08/10 08:59:56;;;;;;;7.50;1.63;;;30.20;88.80;;;;;;5001320;28;20076;-68
2022/08/10 09:02:59;;;;;;;8.30;1.60;;;30.20;90.00;;;;;;4961150;28;207066;-68
2022/08/10 09:05:43;;;;;;;9.18;1.67;;;30.50;87.50;;;;;;4979106;28;219198;-68
2022/08/10 09:08:16;;;;;;;8.38;1.50;;;30.50;84.70;;;;;;4971401;28;213158;-68
2022/08/10 09:10:45;;;;;;;10.07;1.80;;;30.60;86.20;;;;;;4957291;28;206889;-68
2022/08/10 09:13:25;;;;;;;8.53;1.77;;;30.80;86.00;;;;;;4995251;28;20061;-68
2022/08/10 09:15:57;;;;;;;6.67;1.40;;;31.00;85.00;;;;;;4956458;28;207101;-68
2022/08/10 09:18:32;;;;;;;9.35;1.60;;;31.40;81.70;;;;;;4996785;28;66870;-69
2022/08/10 09:21:29;;;;;;;6.78;1.40;;;31.50;82.40;;;;;;4974892;28;207315;-69
2022/08/10 09:24:11;;;;;;;7.97;1.60;;;31.70;79.80;;;;;;4974840;28;227787;-68
2022/08/10 09:26:49;;;;;;;5.88;1.48;;;31.90;79.00;;;;;;4942221;28;206181;-68
2022/08/10 09:29:26;;;;;;;7.80;1.48;;;32.10;77.90;;;;;;4972849;28;202695;-67
2022/08/10 09:32:12;;;;;;;7.30;1.40;;;32.10;77.10;;;;;;4950880;28;213120;-67
2022/08/10 09:35:02;;;;;;;6.55;1.48;;;32.30;75.50;;;;;;5033244;28;79305;-68
2022/08/10 09:37:42;;;;;;;;;;;32.60;73.30;;;;;;5010452;28;228893;-68
2022/08/10 09:40:16;;;;;;;;;;;32.50;71.40;;;;;;5071294;28;137898;-67
2022/08/10 09:43:10;;;;;;;7.38;1.38;;;32.40;72.80;;;;;;5021404;28;208456;-68
2022/08/10 09:45:57;;;;;;;6.13;1.20;;;32.70;71.40;;;;;;5030758;28;210125;-68
2022/08/10 09:48:51;;;;;;;7.27;1.47;;;33.00;70.00;;;;;;5016889;28;269950;-68
2022/08/10 09:51:26;;;;;;;8.23;1.45;;;33.00;69.60;;;;;;4957962;28;207352;-68
2022/08/10 09:54:18;;;;;;;6.57;1.42;;;33.10;67.20;;;;;;4969850;28;163600;-68
2022/08/10 09:57:12;;;;;;;5.95;1.20;;;32.80;68.50;;;;;;4970487;28;131023;-68
2022/08/10 09:59:53;;;;;;;5.57;1.30;;;32.90;65.50;;;;;;4982150;28;106614;-68
2022/08/10 10:02:26;;;;;;;8.23;1.50;;;33.00;66.50;;;;;;4953200;28;209071;-68
2022/08/10 10:04:55;;;;;;;6.00;1.30;;;33.30;66.70;;;;;;4961729;28;164288;-68
2022/08/10 10:07:26;;;;;;;13.70;1.67;;;33.70;65.40;;;;;;4962307;28;208323;-68
2022/08/10 10:10:13;;;;;;;10.27;1.70;;;34.00;64.80;;;;;;4999480;28;56613;-68
2022/08/10 10:13:11;;;;;;;7.50;1.63;;;34.20;64.30;;;;;;4962369;28;205318;-69
2022/08/10 10:15:49;;;;;;;7.40;1.30;;;34.50;63.30;;;;;;4870851;29;223500;-69
2022/08/10 10:18:57;;;;;;;7.90;1.45;;;34.50;61.90;;;;;;4872581;29;179982;-69
2022/08/10 10:21:40;;;;;;;7.07;1.30;;;34.50;60.40;;;;;;4861810;29;138885;-69
2022/08/10 10:24:27;;;;;;;6.78;1.30;;;34.60;61.10;;;;;;4909969;29;234157;-69
2022/08/10 10:27:09;;;;;;;6.40;1.30;;;34.70;59.80;;;;;;4883789;29;210679;-68
2022/08/10 10:29:59;;;;;;;4.72;1.27;;;34.80;58.60;;;;;;4952688;28;89594;-69
2022/08/10 10:32:52;;;;;;;5.82;1.20;;;34.80;58.70;;;;;;4904654;28;206517;-68
2022/08/10 10:35:55;;;;;;;7.78;1.20;;;35.00;59.30;;;;;;4953650;28;157957;-69
2022/08/10 10:38:25;;;;;;;7.10;1.25;;;35.50;57.90;;;;;;4919957;28;175122;-68
2022/08/10 10:41:20;;;;;;;5.65;1.20;;;35.60;56.70;;;;;;4907039;28;213652;-69
2022/08/10 10:44:04;;;;;;;8.15;1.33;;;35.60;55.40;;;;;;4944757;28;34906;-69
2022/08/10 10:47:07;;;;;;;6.60;1.17;;;35.50;55.90;;;;;;4931543;28;140910;-69
2022/08/10 10:49:41;;;;;;;6.75;1.23;;;35.70;55.10;;;;;;4953673;28;154294;-69
2022/08/10 10:52:14;;;;;;;5.20;0.95;;;35.90;54.10;;;;;;4978946;28;209709;-69
2022/08/10 10:54:49;;;;;;;6.53;1.10;;;36.00;55.20;;;;;;5042524;28;44995;-69
2022/08/10 10:57:21;;;;;;;4.57;1.00;;;36.30;53.40;;;;;;5004598;28;212647;-69
2022/08/10 11:00:00;;;;;;;5.32;1.00;;;36.40;53.40;;;;;;5047482;28;21766;-70
2022/08/10 11:02:44;;;;;;;5.43;1.13;;;36.60;51.90;;;;;;5008251;28;206076;-69
2022/08/10 11:05:43;;;;;;;6.53;1.20;;;36.60;51.10;;;;;;5042548;28;102581;-69
2022/08/10 11:08:21;;;;;;;5.47;0.98;;;36.70;51.40;;;;;;5007466;28;206674;-68
2022/08/10 11:11:06;;;;;;;7.18;1.15;;;36.70;51.00;;;;;;5000082;28;213116;-69
2022/08/10 11:13:49;;;;;;;6.55;1.02;;;36.80;50.50;;;;;;5045615;28;272773;-68
2022/08/10 11:16:35;;;;;;;6.95;1.00;;;36.90;50.00;;;;;;5014398;28;213102;-69
2022/08/10 11:19:25;;;;;;;4.30;1.02;;;37.00;48.70;;;;;;5063645;28;50364;-69
2022/08/10 11:22:11;;;;;;;5.03;1.15;;;36.80;48.70;;;;;;5020791;28;209421;-69
2022/08/10 11:25:00;;;;;;;6.15;1.10;;;36.90;49.10;;;;;;5038019;28;153555;-69
2022/08/10 11:27:55;;;;;;;5.15;1.10;;;37.10;47.00;;;;;;5002027;28;217805;-69
2022/08/10 11:30:32;;;;;;;5.97;1.10;;;37.00;47.40;;;;;;5056185;28;21810;-69
2022/08/10 11:33:22;;;;;;;5.82;1.17;;;37.10;48.30;;;;;;5007293;28;209109;-68
2022/08/10 11:36:01;;;;;;;6.13;1.10;;;37.20;47.80;;;;;;4975867;28;212761;-69
2022/08/10 11:38:44;;;;;;;5.55;1.10;;;36.80;47.00;;;;;;5048775;28;257551;-69
2022/08/10 11:41:37;;;;;;;7.30;1.02;;;36.90;47.10;;;;;;5025005;28;210547;-68
2022/08/10 11:44:29;;;;;;;6.50;1.05;;;37.30;47.80;;;;;;5036764;28;178909;-69
2022/08/10 11:47:07;;;;;;;6.28;0.90;;;37.60;47.30;;;;;;4946185;28;211337;-68
2022/08/10 11:49:56;;;;;;;6.65;1.00;;;37.60;46.70;;;;;;4993876;28;39279;-69
2022/08/10 11:52:48;;;;;;;4.40;1.00;;;37.70;45.70;;;;;;4964844;28;208957;-69
2022/08/10 11:55:24;;;;;;;5.25;1.00;;;37.50;46.10;;;;;;4985597;28;214592;-70
2022/08/10 11:57:54;;;;;;;5.95;1.00;;;37.80;46.70;;;;;;4960871;28;210093;-69
2022/08/10 12:00:21;;;;;;;5.63;1.00;;;37.40;45.60;;;;;;5009918;28;157192;-69
2022/08/10 12:02:57;;;;;;;5.60;0.98;;;37.40;46.30;;;;;;4965399;28;175576;-69
2022/08/10 12:05:33;;;;;;;3.85;0.90;;;37.70;45.20;;;;;;4979185;28;167649;-68
2022/08/10 12:08:01;;;;;;;6.60;1.10;;;37.70;45.20;;;;;;4959554;28;211441;-68
2022/08/10 12:10:29;;;;;;;6.93;1.10;;;37.70;45.30;;;;;;4995664;28;107779;-69
2022/08/10 12:13:03;;;;;;;7.13;0.90;;;37.30;45.20;;;;;;4945035;28;205448;-69
2022/08/10 12:15:56;;;;;;;6.65;1.08;;;37.40;44.50;;;;;;5012999;28;75529;-69
2022/08/10 12:18:31;;;;;;;6.28;1.00;;;37.60;43.30;;;;;;4938948;28;235261;-68
2022/08/10 12:21:02;;;;;;;8.63;1.13;;;37.10;44.60;;;;;;4960791;28;205404;-68
2022/08/10 12:23:42;;;;;;;3.65;0.88;;;37.40;45.10;;;;;;5003992;28;254478;-69
2022/08/10 12:26:13;;;;;;;4.97;1.10;;;37.60;45.10;;;;;;5022456;28;210970;-69
2022/08/10 12:29:02;;;;;;;5.53;1.00;;;37.90;44.40;;;;;;5036976;28;263848;-69
2022/08/10 12:32:00;;;;;;;7.30;0.90;;;37.90;44.20;;;;;;5011821;28;213215;-69
2022/08/10 12:34:36;;;;;;;4.18;0.80;;;38.00;44.40;;;;;;5057545;28;153704;-69
2022/08/10 12:37:27;;;;;;;3.55;0.80;;;38.20;44.10;;;;;;5022763;28;206708;-69
2022/08/10 12:40:24;;;;;;;6.80;1.08;;;38.40;43.80;;;;;;5062525;28;25263;-70
2022/08/10 12:42:59;;;;;;;4.35;0.90;;;38.60;43.70;;;;;;5024195;28;206521;-69
2022/08/10 12:45:35;;;;;;;5.32;1.00;;;38.70;43.10;;;;;;5038175;28;213275;-70
2022/08/10 12:48:28;;;;;;;6.28;1.00;;;38.70;43.00;;;;;;5005389;28;215780;-70
2022/08/10 12:50:58;;;;;;;4.78;1.00;;;38.90;43.00;;;;;;4998173;28;210533;-69
2022/08/10 12:53:32;;;;;;;4.10;0.90;;;38.80;43.30;;;;;;5034265;28;266145;-69
2022/08/10 12:56:00;;;;;;;4.78;1.05;;;38.70;43.10;;;;;;5026578;28;211771;-69
2022/08/10 12:58:29;;;;;;;3.77;0.90;;;38.50;44.00;;;;;;5051319;28;271873;-70
2022/08/10 13:00:56;;;;;;;6.22;1.05;;;38.60;43.30;;;;;;5004288;28;211473;-70
2022/08/10 13:03:24;;;;;;;5.80;0.90;;;38.90;43.40;;;;;;5018952;28;269947;-70
2022/08/10 13:05:53;;;;;;;5.50;1.00;;;39.10;42.90;;;;;;5019626;28;210333;-69